createdAt,value
2018-05-13T00:00:32.077Z,10.33
2018-05-13T00:03:00.313Z,11.83
2018-05-13T00:05:27.812Z,10.07
2018-05-13T00:07:56.066Z,11.10
2018-05-13T00:10:23.588Z,11.00
2018-05-13T00:12:51.057Z,11.80
2018-05-13T00:15:18.550Z,12.77
2018-05-13T00:17:46.034Z,11.30
2018-05-13T00:20:14.308Z,9.53
2018-05-13T00:22:42.563Z,10.80
2018-05-13T00:25:10.827Z,9.47
2018-05-13T00:27:38.301Z,9.40
2018-05-13T00:30:05.818Z,10.87
2018-05-13T00:32:33.299Z,9.03
2018-05-13T00:35:00.766Z,10.20
2018-05-13T00:37:28.285Z,12.17
2018-05-13T00:39:55.767Z,10.10
2018-05-13T00:42:23.263Z,9.97
2018-05-13T00:44:51.499Z,10.73
2018-05-13T00:47:19.012Z,14.10
2018-05-13T00:49:47.241Z,10.03
2018-05-13T00:52:14.741Z,10.10
2018-05-13T00:54:55.548Z,10.30
2018-05-13T00:57:23.043Z,10.63
2018-05-13T00:59:50.505Z,10.00
2018-05-13T01:02:18.010Z,10.80
2018-05-13T01:04:45.477Z,14.47
2018-05-13T01:07:12.988Z,12.57
2018-05-13T01:09:40.468Z,14.47
2018-05-13T01:12:07.944Z,12.20
2018-05-13T01:14:35.459Z,13.20
2018-05-13T01:17:02.947Z,17.00
2018-05-13T01:19:31.213Z,11.33
2018-05-13T01:21:59.461Z,15.80
2018-05-13T01:24:26.961Z,12.30
2018-05-13T01:26:54.441Z,9.60
2018-05-13T01:29:21.954Z,13.93
2018-05-13T01:31:50.188Z,10.83
2018-05-13T01:34:17.684Z,14.77
2018-05-13T01:36:45.185Z,12.43
2018-05-13T01:39:12.682Z,10.83
2018-05-13T01:41:40.213Z,11.87
2018-05-13T01:44:07.708Z,11.47
2018-05-13T01:46:35.229Z,11.80
2018-05-13T01:49:02.702Z,13.23
2018-05-13T01:51:30.200Z,11.33
2018-05-13T01:53:57.659Z,11.87
2018-05-13T01:56:25.928Z,12.10
2018-05-13T01:58:53.405Z,16.27
2018-05-13T02:01:21.658Z,12.23
2018-05-13T02:03:49.128Z,11.50
2018-05-13T02:06:17.402Z,13.23
2018-05-13T02:08:44.878Z,11.20
2018-05-13T02:11:13.191Z,13.33
2018-05-13T02:13:40.669Z,10.90
2018-05-13T02:16:08.139Z,11.97
2018-05-13T02:18:35.644Z,11.70
2018-05-13T02:21:03.125Z,11.70
2018-05-13T02:23:30.625Z,13.33
2018-05-13T02:25:58.092Z,16.20
2018-05-13T02:28:25.602Z,14.50
2018-05-13T02:30:53.068Z,13.77
2018-05-13T02:33:20.578Z,13.80
2018-05-13T02:35:48.824Z,16.50
2018-05-13T02:38:16.301Z,12.70
2018-05-13T02:40:43.801Z,15.73
2018-05-13T02:43:11.290Z,14.40
2018-05-13T02:45:38.777Z,18.60
2018-05-13T02:48:07.056Z,14.53
2018-05-13T02:50:34.542Z,14.67
2018-05-13T02:53:02.007Z,11.67
2018-05-13T02:55:29.509Z,13.57
2018-05-13T02:57:56.996Z,14.87
2018-05-13T03:00:25.368Z,12.73
2018-05-13T03:02:53.666Z,10.87
2018-05-13T03:05:21.156Z,10.23
2018-05-13T03:07:48.662Z,10.87
2018-05-13T03:10:16.922Z,12.00
2018-05-13T03:12:44.412Z,14.87
2018-05-13T03:15:12.677Z,12.30
2018-05-13T03:17:40.164Z,12.33
2018-05-13T03:20:07.672Z,11.30
2018-05-13T03:22:35.184Z,10.27
2018-05-13T03:25:02.653Z,11.73
2018-05-13T03:27:30.150Z,13.50
2018-05-13T03:29:57.654Z,11.53
2018-05-13T03:32:25.183Z,10.87
2018-05-13T03:34:52.650Z,14.40
2018-05-13T03:37:20.926Z,17.20
2018-05-13T03:39:49.196Z,15.47
2018-05-13T03:42:16.672Z,14.87
2018-05-13T03:44:44.939Z,14.87
2018-05-13T03:47:13.173Z,14.17
2018-05-13T03:49:40.697Z,19.00
2018-05-13T03:52:08.180Z,12.00
2018-05-13T03:54:35.681Z,13.30
2018-05-13T03:57:03.157Z,12.53
2018-05-13T03:59:31.414Z,13.17
2018-05-13T04:01:58.885Z,14.77
2018-05-13T04:04:27.158Z,15.67
2018-05-13T04:06:55.411Z,13.77
2018-05-13T04:09:34.931Z,17.77
2018-05-13T04:12:14.320Z,14.80
2018-05-13T04:14:54.546Z,14.63
2018-05-13T04:17:22.049Z,14.87
2018-05-13T04:19:49.549Z,13.07
2018-05-13T04:22:17.059Z,12.30
2018-05-13T04:24:45.296Z,11.80
2018-05-13T04:27:12.797Z,14.93
2018-05-13T04:29:41.054Z,14.13
2018-05-13T04:32:08.566Z,13.57
2018-05-13T04:34:36.046Z,15.70
2018-05-13T04:37:03.524Z,12.23
2018-05-13T04:39:31.029Z,14.20
2018-05-13T04:41:58.551Z,12.63
2018-05-13T04:44:26.026Z,15.97
2018-05-13T04:46:54.299Z,14.53
2018-05-13T04:49:22.541Z,13.53
2018-05-13T04:51:50.017Z,12.50
2018-05-13T04:54:17.528Z,12.93
2018-05-13T04:56:45.001Z,12.67
2018-05-13T04:59:12.524Z,13.13
2018-05-13T05:01:40.006Z,13.10
2018-05-13T05:04:07.504Z,12.27
2018-05-13T05:06:35.786Z,12.40
2018-05-13T05:09:03.395Z,18.20
2018-05-13T05:11:30.772Z,14.90
2018-05-13T05:13:58.266Z,14.43
2018-05-13T05:16:25.745Z,13.57
2018-05-13T05:18:54.038Z,12.40
2018-05-13T05:21:21.554Z,15.97
2018-05-13T05:23:49.102Z,14.13
2018-05-13T05:26:16.557Z,14.27
2018-05-13T05:28:44.082Z,13.70
2018-05-13T05:31:11.569Z,13.60
2018-05-13T05:33:39.084Z,14.27
2018-05-13T05:36:06.580Z,15.10
2018-05-13T05:38:34.057Z,13.40
2018-05-13T05:41:01.599Z,15.00
2018-05-13T05:43:29.111Z,14.90
2018-05-13T05:45:57.355Z,16.53
2018-05-13T05:48:24.930Z,14.50
2018-05-13T05:50:52.384Z,17.10
2018-05-13T05:53:20.659Z,19.03
2018-05-13T05:55:48.325Z,22.37
2018-05-13T05:58:15.850Z,16.20
2018-05-13T06:00:43.322Z,12.93
2018-05-13T06:03:10.870Z,12.83
2018-05-13T06:05:38.366Z,14.63
2018-05-13T06:08:06.605Z,15.60
2018-05-13T06:10:34.133Z,18.60
2018-05-13T06:13:01.653Z,14.33
2018-05-13T06:15:29.161Z,17.40
2018-05-13T06:17:56.642Z,14.40
2018-05-13T06:20:24.157Z,13.73
2018-05-13T06:22:52.408Z,13.47
2018-05-13T06:25:20.026Z,12.73
2018-05-13T06:27:47.425Z,13.30
2018-05-13T06:30:14.971Z,16.57
2018-05-13T06:32:42.463Z,13.37
2018-05-13T06:35:10.745Z,12.93
2018-05-13T06:37:38.999Z,14.23
2018-05-13T06:40:06.517Z,14.23
2018-05-13T06:42:34.017Z,12.70
2018-05-13T06:45:01.491Z,12.93
2018-05-13T06:47:29.752Z,15.70
2018-05-13T06:49:57.213Z,13.27
2018-05-13T06:52:24.717Z,13.30
2018-05-13T06:54:52.198Z,15.83
2018-05-13T06:57:19.804Z,14.83
2018-05-13T06:59:47.973Z,14.07
2018-05-13T07:02:15.496Z,12.97
2018-05-13T07:04:42.981Z,15.00
2018-05-13T07:07:10.478Z,15.70
2018-05-13T07:09:38.003Z,14.00
2018-05-13T07:12:05.503Z,14.80
2018-05-13T07:14:33.001Z,23.33
2018-05-13T07:17:00.525Z,17.60
2018-05-13T07:19:28.021Z,14.43
2018-05-13T07:21:55.490Z,16.20
2018-05-13T07:24:23.009Z,17.70
2018-05-13T07:26:50.492Z,16.30
2018-05-13T07:29:18.013Z,14.67
2018-05-13T07:31:45.502Z,15.03
2018-05-13T07:34:13.020Z,15.23
2018-05-13T07:36:41.248Z,17.53
2018-05-13T07:39:08.717Z,15.20
2018-05-13T07:41:36.229Z,14.13
2018-05-13T07:44:03.710Z,15.30
2018-05-13T07:46:31.241Z,14.93
2018-05-13T07:48:58.737Z,15.77
2018-05-13T07:51:26.241Z,14.57
2018-05-13T07:53:54.479Z,14.10
2018-05-13T07:56:21.976Z,14.50
2018-05-13T07:58:50.205Z,15.87
2018-05-13T08:01:17.736Z,16.60
2018-05-13T08:03:45.228Z,16.10
2018-05-13T08:06:12.729Z,13.97
2018-05-13T08:08:41.098Z,13.43
2018-05-13T08:11:09.330Z,15.60
2018-05-13T08:13:36.846Z,17.30
2018-05-13T08:16:05.104Z,14.70
2018-05-13T08:18:32.610Z,13.40
2018-05-13T08:21:00.099Z,13.47
2018-05-13T08:23:27.565Z,12.77
2018-05-13T08:25:55.101Z,13.67
2018-05-13T08:28:22.581Z,14.23
2018-05-13T08:30:50.134Z,18.10
2018-05-13T08:33:17.615Z,13.77
2018-05-13T08:35:45.118Z,15.97
2018-05-13T08:38:12.592Z,13.83
2018-05-13T08:40:40.105Z,12.33
2018-05-13T08:43:08.362Z,14.43
2018-05-13T08:45:36.616Z,11.67
2018-05-13T08:48:04.105Z,12.33
2018-05-13T08:50:31.624Z,15.47
2018-05-13T08:52:59.245Z,11.20
2018-05-13T08:55:26.776Z,12.93
2018-05-13T08:57:54.245Z,13.10
2018-05-13T09:00:21.755Z,11.03
2018-05-13T09:02:49.241Z,10.80
2018-05-13T09:05:16.762Z,11.63
2018-05-13T09:07:44.265Z,10.70
2018-05-13T09:10:11.785Z,10.30
2018-05-13T09:12:39.288Z,14.07
2018-05-13T09:15:06.765Z,10.47
2018-05-13T09:17:35.014Z,11.50
2018-05-13T09:20:02.537Z,11.70
2018-05-13T09:22:30.043Z,13.93
2018-05-13T09:24:57.525Z,9.93
2018-05-13T09:27:25.763Z,13.60
2018-05-13T09:29:53.260Z,10.00
2018-05-13T09:32:21.493Z,10.60
2018-05-13T09:34:49.001Z,10.40
2018-05-13T09:37:16.494Z,10.30
2018-05-13T09:39:43.992Z,8.60
2018-05-13T09:42:11.491Z,12.20
2018-05-13T09:44:38.989Z,9.83
2018-05-13T09:47:06.448Z,9.47
2018-05-13T09:49:33.978Z,8.90
2018-05-13T09:52:01.453Z,12.43
2018-05-13T09:54:29.466Z,9.87
2018-05-13T09:56:56.953Z,9.17
2018-05-13T09:59:24.456Z,10.70
2018-05-13T10:01:51.961Z,10.37
2018-05-13T10:04:19.445Z,8.73
2018-05-13T10:06:46.946Z,8.23
2018-05-13T10:09:14.442Z,9.63
2018-05-13T10:11:41.958Z,11.77
2018-05-13T10:14:09.463Z,10.70
2018-05-13T10:16:36.994Z,8.90
2018-05-13T10:19:05.230Z,9.60
2018-05-13T10:21:32.722Z,10.07
2018-05-13T10:24:00.205Z,10.00
2018-05-13T10:26:28.472Z,8.17
2018-05-13T10:28:56.741Z,9.70
2018-05-13T10:31:25.005Z,9.97
2018-05-13T10:33:52.476Z,10.80
2018-05-13T10:36:20.817Z,12.70
2018-05-13T10:38:48.993Z,14.63
2018-05-13T10:41:16.486Z,10.57
2018-05-13T10:43:43.990Z,11.40
2018-05-13T10:46:11.473Z,11.77
2018-05-13T10:48:39.005Z,10.40
2018-05-13T10:51:06.514Z,10.73
2018-05-13T10:53:34.506Z,27.13
2018-05-13T10:56:02.776Z,10.70
2018-05-13T10:58:31.048Z,10.33
2018-05-13T11:00:58.522Z,11.10
2018-05-13T11:03:26.826Z,11.23
2018-05-13T11:05:54.316Z,11.00
2018-05-13T11:08:21.817Z,11.07
2018-05-13T11:10:50.131Z,13.20
2018-05-13T11:13:17.618Z,11.20
2018-05-13T11:15:45.116Z,9.90
2018-05-13T11:18:12.608Z,13.20
2018-05-13T11:20:40.122Z,11.40
2018-05-13T11:23:08.361Z,11.37
2018-05-13T11:25:35.846Z,11.20
2018-05-13T11:28:03.369Z,11.40
2018-05-13T11:30:30.879Z,12.33
2018-05-13T11:32:59.124Z,18.30
2018-05-13T11:35:26.653Z,17.53
2018-05-13T11:37:54.183Z,11.50
2018-05-13T11:40:22.437Z,9.67
2018-05-13T11:42:50.718Z,13.33
2018-05-13T11:45:18.981Z,10.90
2018-05-13T11:47:46.508Z,10.77
2018-05-13T11:50:13.972Z,10.33
2018-05-13T11:52:41.491Z,10.47
2018-05-13T11:55:09.759Z,11.33
2018-05-13T11:57:38.060Z,10.60
2018-05-13T12:00:05.561Z,10.90
2018-05-13T12:02:33.088Z,12.00
2018-05-13T12:05:00.563Z,11.70
2018-05-13T12:07:28.060Z,10.60
2018-05-13T12:09:56.341Z,11.80
2018-05-13T12:12:24.577Z,15.20
2018-05-13T12:14:52.107Z,10.97
2018-05-13T12:17:19.603Z,13.30
2018-05-13T12:19:47.090Z,10.30
2018-05-13T12:22:15.359Z,10.90
2018-05-13T12:24:42.865Z,10.53
2018-05-13T12:27:10.382Z,10.83
2018-05-13T12:29:37.863Z,10.93
2018-05-13T12:32:05.374Z,12.97
2018-05-13T12:34:32.868Z,10.60
2018-05-13T12:37:01.137Z,11.20
2018-05-13T12:39:29.388Z,10.03
2018-05-13T12:41:56.868Z,10.83
2018-05-13T12:44:24.326Z,10.23
2018-05-13T12:46:51.829Z,10.43
2018-05-13T12:49:19.297Z,8.83
2018-05-13T12:51:46.798Z,10.00
2018-05-13T12:54:14.298Z,9.23
2018-05-13T12:56:41.792Z,11.13
2018-05-13T12:59:09.283Z,9.80
2018-05-13T13:01:37.583Z,9.77
2018-05-13T13:04:05.835Z,11.63
2018-05-13T13:06:34.112Z,10.10
2018-05-13T13:09:01.621Z,12.83
2018-05-13T13:11:29.085Z,10.83
2018-05-13T13:13:56.614Z,9.97
2018-05-13T13:16:24.860Z,10.60
2018-05-13T13:18:52.381Z,11.47
2018-05-13T13:21:19.880Z,11.93
2018-05-13T13:23:48.193Z,13.77
2018-05-13T13:26:15.683Z,13.27
2018-05-13T13:28:43.178Z,11.43
2018-05-13T13:31:11.454Z,10.67
2018-05-13T13:33:39.734Z,13.93
2018-05-13T13:36:07.214Z,11.00
2018-05-13T13:38:34.681Z,11.37
2018-05-13T13:41:02.189Z,10.63
2018-05-13T13:43:29.661Z,10.40
2018-05-13T13:45:57.162Z,11.57
2018-05-13T13:48:25.480Z,13.00
2018-05-13T13:50:53.005Z,12.40
2018-05-13T13:53:20.559Z,12.17
2018-05-13T13:55:48.030Z,12.60
2018-05-13T13:58:15.518Z,10.83
2018-05-13T14:00:43.061Z,11.50
2018-05-13T14:03:10.525Z,12.33
2018-05-13T14:05:38.001Z,15.13
2018-05-13T14:08:05.517Z,13.93
2018-05-13T14:10:33.000Z,12.83
2018-05-13T14:13:00.497Z,13.70
2018-05-13T14:15:28.737Z,13.20
2018-05-13T14:17:56.255Z,14.07
2018-05-13T14:20:23.896Z,12.60
2018-05-13T14:22:51.307Z,13.17
2018-05-13T14:25:18.797Z,16.33
2018-05-13T14:27:46.285Z,14.63
2018-05-13T14:30:13.773Z,14.50
2018-05-13T14:32:41.287Z,13.73
2018-05-13T14:35:09.520Z,13.93
2018-05-13T14:37:37.001Z,17.33
2018-05-13T14:40:04.501Z,14.97
2018-05-13T14:42:32.040Z,16.50
2018-05-13T14:45:00.288Z,12.90
2018-05-13T14:47:27.813Z,14.53
2018-05-13T14:49:55.300Z,14.53
2018-05-13T14:52:22.764Z,15.20
2018-05-13T14:54:50.273Z,14.57
2018-05-13T14:57:17.753Z,15.27
2018-05-13T14:59:45.279Z,16.63
2018-05-13T15:02:13.568Z,17.43
2018-05-13T15:04:41.071Z,15.93
2018-05-13T15:07:08.561Z,16.57
2018-05-13T15:09:36.854Z,17.30
2018-05-13T15:12:05.084Z,17.10
2018-05-13T15:14:32.556Z,16.20
2018-05-13T15:17:00.058Z,16.47
2018-05-13T15:19:27.561Z,17.27
2018-05-13T15:21:55.071Z,17.93
2018-05-13T15:24:22.545Z,16.70
2018-05-13T15:26:50.064Z,15.87
2018-05-13T15:29:17.549Z,18.00
2018-05-13T15:31:45.091Z,16.37
2018-05-13T15:34:13.317Z,18.73
2018-05-13T15:36:40.820Z,17.10
2018-05-13T15:39:09.122Z,17.87
2018-05-13T15:41:36.618Z,20.60
2018-05-13T15:44:04.108Z,19.07
2018-05-13T15:46:31.620Z,20.57
2018-05-13T15:48:59.197Z,22.93
2018-05-13T15:51:26.678Z,17.67
2018-05-13T15:53:54.266Z,20.90
2018-05-13T15:56:21.706Z,18.23
2018-05-13T15:58:49.215Z,17.57
2018-05-13T16:01:16.707Z,16.67
2018-05-13T16:03:44.883Z,19.40
2018-05-13T16:06:12.346Z,21.60
2018-05-13T16:08:39.851Z,20.20
2018-05-13T16:11:08.121Z,21.17
2018-05-13T16:13:35.667Z,19.30
2018-05-13T16:16:03.936Z,20.20
2018-05-13T16:18:32.221Z,21.80
2018-05-13T16:21:00.470Z,23.43
2018-05-13T16:23:27.972Z,23.50
2018-05-13T16:25:55.484Z,21.60
2018-05-13T16:28:22.958Z,22.17
2018-05-13T16:30:50.511Z,25.30
2018-05-13T16:33:17.980Z,25.70
2018-05-13T16:35:46.281Z,29.37
2018-05-13T16:38:13.801Z,27.37
2018-05-13T16:40:41.335Z,27.67
2018-05-13T16:43:08.839Z,35.93
2018-05-13T16:45:37.429Z,29.10
2018-05-13T16:48:05.687Z,28.20
2018-05-13T16:50:33.199Z,30.30
2018-05-13T16:53:00.735Z,38.03
2018-05-13T16:55:28.978Z,36.47
2018-05-13T16:57:56.463Z,32.27
2018-05-13T17:00:24.732Z,36.83
2018-05-13T17:02:53.010Z,32.10
2018-05-13T17:05:21.285Z,38.17
2018-05-13T17:07:49.565Z,40.83
2018-05-13T17:10:17.802Z,37.60
2018-05-13T17:12:45.327Z,36.03
2018-05-13T17:15:12.798Z,39.27
2018-05-13T17:17:40.309Z,39.80
2018-05-13T17:20:07.809Z,35.47
2018-05-13T17:22:35.326Z,35.57
2018-05-13T17:25:02.840Z,35.77
2018-05-13T17:27:30.351Z,35.70
2018-05-13T17:29:58.642Z,37.50
2018-05-13T17:32:26.911Z,37.87
2018-05-13T17:34:55.136Z,39.70
2018-05-13T17:37:22.666Z,39.57
2018-05-13T17:39:50.131Z,33.03
2018-05-13T17:42:17.637Z,23.77
2018-05-13T17:44:45.148Z,21.90
2018-05-13T17:47:12.701Z,22.47
2018-05-13T17:49:40.185Z,23.60
2018-05-13T17:52:07.666Z,24.10
2018-05-13T17:54:35.160Z,28.07
2018-05-13T17:57:03.427Z,22.33
2018-05-13T17:59:30.902Z,21.43
2018-05-13T18:01:59.187Z,24.87
2018-05-13T18:04:27.451Z,22.97
2018-05-13T18:06:55.755Z,19.87
2018-05-13T18:09:23.999Z,23.10
2018-05-13T18:11:52.297Z,21.27
2018-05-13T18:14:20.548Z,19.70
2018-05-13T18:16:48.077Z,19.37
2018-05-13T18:19:15.567Z,18.67
2018-05-13T18:21:43.840Z,17.10
2018-05-13T18:24:11.369Z,18.37
2018-05-13T18:26:38.864Z,18.90
2018-05-13T18:29:07.140Z,19.10
2018-05-13T18:31:35.417Z,17.70
2018-05-13T18:34:03.681Z,19.90
2018-05-13T18:36:31.144Z,16.90
2018-05-13T18:38:58.739Z,17.17
2018-05-13T18:41:26.157Z,22.03
2018-05-13T18:43:55.174Z,17.17
2018-05-13T18:46:23.481Z,18.77
2018-05-13T18:48:51.014Z,18.37
2018-05-13T18:51:19.280Z,18.23
2018-05-13T18:53:47.576Z,19.40
2018-05-13T18:56:15.834Z,18.90
2018-05-13T18:58:44.095Z,19.00
2018-05-13T19:01:11.611Z,20.00
2018-05-13T19:03:39.072Z,22.10
2018-05-13T19:06:06.595Z,17.90
2018-05-13T19:08:34.867Z,17.67
2018-05-13T19:11:03.137Z,18.47
2018-05-13T19:13:32.121Z,18.53
2018-05-13T19:16:01.130Z,18.60
2018-05-13T19:18:29.392Z,17.63
2018-05-13T19:20:56.918Z,18.23
2018-05-13T19:23:24.398Z,16.70
2018-05-13T19:25:51.906Z,16.17
2018-05-13T19:28:19.385Z,16.93
2018-05-13T19:30:46.992Z,15.33
2018-05-13T19:33:14.413Z,14.77
2018-05-13T19:35:41.959Z,13.57
2018-05-13T19:38:09.433Z,17.13
2018-05-13T19:40:36.949Z,14.07
2018-05-13T19:43:05.239Z,12.67
2018-05-13T19:45:35.708Z,12.13
2018-05-13T19:48:03.805Z,11.87
2018-05-13T19:50:31.303Z,12.77
2018-05-13T19:52:58.807Z,13.50
2018-05-13T19:55:26.286Z,11.30
2018-05-13T19:57:54.589Z,14.77
2018-05-13T20:00:22.092Z,11.40
2018-05-13T20:02:49.772Z,14.80
2018-05-13T20:05:17.889Z,12.90
2018-05-13T20:07:45.390Z,10.40
2018-05-13T20:10:12.873Z,12.03
2018-05-13T20:12:40.413Z,12.23
2018-05-13T20:15:07.875Z,12.93
2018-05-13T20:17:35.386Z,13.40
2018-05-13T20:20:02.878Z,13.67
2018-05-13T20:22:30.359Z,13.97
2018-05-13T20:24:59.390Z,13.63
2018-05-13T20:27:27.629Z,14.77
2018-05-13T20:29:55.130Z,10.90
2018-05-13T20:32:22.609Z,12.10
2018-05-13T20:34:50.118Z,10.03
2018-05-13T20:37:17.585Z,15.23
2018-05-13T20:39:45.855Z,12.50
2018-05-13T20:42:14.091Z,12.40
2018-05-13T20:44:41.600Z,11.40
2018-05-13T20:47:09.838Z,11.37
2018-05-13T20:49:37.379Z,13.23
2018-05-13T20:52:04.858Z,13.20
2018-05-13T20:54:32.374Z,13.80
2018-05-13T20:56:59.860Z,14.13
2018-05-13T20:59:27.365Z,14.50
2018-05-13T21:01:55.665Z,13.30
2018-05-13T21:04:23.141Z,14.13
2018-05-13T21:06:50.641Z,14.37
2018-05-13T21:09:18.109Z,14.73
2018-05-13T21:11:45.629Z,15.10
2018-05-13T21:14:13.106Z,12.70
2018-05-13T21:16:40.617Z,14.10
2018-05-13T21:19:08.982Z,13.33
2018-05-13T21:21:37.276Z,14.13
2018-05-13T21:24:04.780Z,15.63
2018-05-13T21:26:32.271Z,13.60
2018-05-13T21:29:00.539Z,12.67
2018-05-13T21:31:28.032Z,14.33
2018-05-13T21:33:55.537Z,13.37
2018-05-13T21:36:23.065Z,12.07
2018-05-13T21:38:50.563Z,13.63
2018-05-13T21:41:18.033Z,12.47
2018-05-13T21:43:45.542Z,16.97
2018-05-13T21:46:13.017Z,13.83
2018-05-13T21:48:40.498Z,12.50
2018-05-13T21:51:07.985Z,11.33
2018-05-13T21:53:36.268Z,10.67
2018-05-13T21:56:04.514Z,13.50
2018-05-13T21:58:32.010Z,10.13
2018-05-13T22:01:00.132Z,13.33
2018-05-13T22:03:27.647Z,10.53
2018-05-13T22:05:55.124Z,11.27
2018-05-13T22:08:22.651Z,13.17
2018-05-13T22:10:50.897Z,9.63
2018-05-13T22:13:18.398Z,10.50
2018-05-13T22:15:45.880Z,8.20
2018-05-13T22:18:13.374Z,9.03
2018-05-13T22:20:40.846Z,10.13
2018-05-13T22:23:09.110Z,7.10
2018-05-13T22:25:36.612Z,7.30
2018-05-13T22:28:04.872Z,9.23
2018-05-13T22:30:32.348Z,8.60
2018-05-13T22:32:59.828Z,7.80
2018-05-13T22:35:27.316Z,7.97
2018-05-13T22:37:54.789Z,11.40
2018-05-13T22:40:23.033Z,7.53
2018-05-13T22:42:50.510Z,8.37
2018-05-13T22:45:18.010Z,8.77
2018-05-13T22:47:45.463Z,8.70
2018-05-13T22:50:12.971Z,9.97
2018-05-13T22:52:40.461Z,10.33
2018-05-13T22:55:08.697Z,9.33
2018-05-13T22:57:36.184Z,10.80
2018-05-13T23:00:03.694Z,10.30
2018-05-13T23:02:31.182Z,9.63
2018-05-13T23:04:58.671Z,10.77
2018-05-13T23:07:26.944Z,9.73
2018-05-13T23:09:55.193Z,7.87
2018-05-13T23:12:22.698Z,10.23
2018-05-13T23:14:50.186Z,7.00
2018-05-13T23:17:17.687Z,5.20
2018-05-13T23:19:45.176Z,5.10
2018-05-13T23:22:24.541Z,4.77
2018-05-13T23:24:52.029Z,4.77
2018-05-13T23:27:19.548Z,6.10
2018-05-13T23:29:47.031Z,3.67
2018-05-13T23:32:14.529Z,5.40
2018-05-13T23:34:42.762Z,2.73
2018-05-13T23:37:10.926Z,2.87
2018-05-13T23:39:38.423Z,3.13
2018-05-13T23:42:05.924Z,3.83
2018-05-13T23:44:33.412Z,2.53
2018-05-13T23:47:00.890Z,2.57
2018-05-13T23:49:28.372Z,2.40
2018-05-13T23:51:56.625Z,4.10
2018-05-13T23:54:24.125Z,2.83
2018-05-13T23:56:51.585Z,3.37
2018-05-13T23:59:19.078Z,2.60
